Time;durP1;ratioP1;P1;durP2;ratioP2;P2;SDS_P1;SDS_P2;PMS_P1;PMS_P2;Temp;Humidity;BMP_temperature;BMP_pressure;BME280_temperature;BME280_humidity;BME280_pressure;Samples;Min_cycle;Max_cycle;Signal;HPM_P1;HPM_P2
2021/06/19 00:00:36;;;;;;;7.93;7.15;;;27.90;85.80;;;;;;5128976;27;20205;-73
2021/06/19 00:03:04;;;;;;;7.63;6.80;;;27.90;86.10;;;;;;5128480;28;20209;-73
2021/06/19 00:05:32;;;;;;;8.85;7.95;;;27.90;86.00;;;;;;5128643;28;20245;-72
2021/06/19 00:08:00;;;;;;;8.00;7.28;;;27.90;86.10;;;;;;5128423;28;20651;-72
2021/06/19 00:10:27;;;;;;;9.38;7.55;;;27.80;86.90;;;;;;5128566;28;20225;-73
2021/06/19 00:12:53;;;;;;;7.78;7.15;;;27.80;86.60;;;;;;5128848;28;20206;-73
2021/06/19 00:15:22;;;;;;;7.43;6.82;;;27.80;87.40;;;;;;5128525;28;20249;-73
2021/06/19 00:17:49;;;;;;;9.63;7.07;;;27.80;87.50;;;;;;5128478;28;20545;-72
2021/06/19 00:20:18;;;;;;;8.60;6.53;;;27.70;87.70;;;;;;5130103;27;20206;-72
2021/06/19 00:22:47;;;;;;;7.50;6.97;;;27.70;88.00;;;;;;5132799;27;20619;-72
2021/06/19 00:25:15;;;;;;;7.68;7.18;;;27.70;88.20;;;;;;5132848;27;20610;-73
2021/06/19 00:27:42;;;;;;;7.55;6.88;;;27.70;88.10;;;;;;5132573;27;20258;-74
2021/06/19 00:30:11;;;;;;;7.60;6.90;;;27.60;88.10;;;;;;5132958;27;20225;-74
2021/06/19 00:32:38;;;;;;;8.15;7.47;;;27.60;88.20;;;;;;5132843;27;20206;-74
2021/06/19 00:35:06;;;;;;;7.60;6.97;;;27.50;87.00;;;;;;5132721;27;20205;-72
2021/06/19 00:37:33;;;;;;;10.45;7.35;;;27.50;87.90;;;;;;5132501;27;20305;-72
2021/06/19 00:40:01;;;;;;;7.75;7.00;;;27.50;88.30;;;;;;5132473;27;20197;-73
2021/06/19 00:42:28;;;;;;;8.27;7.28;;;27.50;88.50;;;;;;5132583;27;20209;-72
2021/06/19 00:44:57;;;;;;;8.13;7.53;;;27.40;88.40;;;;;;5132562;27;20202;-72
2021/06/19 00:47:24;;;;;;;8.05;7.25;;;27.40;88.60;;;;;;5132334;27;20209;-72
2021/06/19 00:49:50;;;;;;;8.07;7.45;;;27.40;88.30;;;;;;5132369;27;20266;-72
2021/06/19 00:52:17;;;;;;;8.27;7.55;;;27.40;88.30;;;;;;5132271;27;20201;-72
2021/06/19 00:54:43;;;;;;;7.47;6.78;;;27.40;87.70;;;;;;5132176;27;20235;-72
2021/06/19 00:57:12;;;;;;;7.80;7.15;;;27.40;87.60;;;;;;5132125;27;20258;-72
2021/06/19 00:59:39;;;;;;;8.00;7.45;;;27.40;87.60;;;;;;5132083;27;20208;-72
2021/06/19 01:02:06;;;;;;;9.13;7.65;;;27.40;87.20;;;;;;5132005;27;20201;-72
2021/06/19 01:04:33;;;;;;;8.73;7.63;;;27.30;86.20;;;;;;5131508;27;20241;-72
2021/06/19 01:07:00;;;;;;;8.10;7.28;;;27.40;85.80;;;;;;5132392;27;20282;-72
2021/06/19 01:09:27;;;;;;;9.07;7.50;;;27.40;86.10;;;;;;5132018;27;20208;-72
2021/06/19 01:11:54;;;;;;;8.25;7.65;;;27.40;86.70;;;;;;5132027;27;20257;-72
2021/06/19 01:14:22;;;;;;;7.80;7.03;;;27.30;86.70;;;;;;5131984;27;20262;-74
2021/06/19 01:16:50;;;;;;;7.53;7.03;;;27.40;85.80;;;;;;5131203;27;20799;-74
2021/06/19 01:19:18;;;;;;;8.10;7.47;;;27.30;85.60;;;;;;5131837;27;20202;-73
2021/06/19 01:21:44;;;;;;;8.18;7.47;;;27.30;85.30;;;;;;5131820;27;20564;-73
2021/06/19 01:24:14;;;;;;;7.95;7.40;;;27.30;85.00;;;;;;5131758;27;20209;-73
2021/06/19 01:26:43;;;;;;;7.35;6.68;;;27.30;85.10;;;;;;5131261;27;20202;-74
2021/06/19 01:29:10;;;;;;;11.30;7.50;;;27.30;85.70;;;;;;5131404;27;20274;-73
2021/06/19 01:31:38;;;;;;;8.32;7.57;;;27.10;86.00;;;;;;5130092;27;20265;-73
2021/06/19 01:34:05;;;;;;;8.65;7.85;;;27.10;87.00;;;;;;5131466;27;20270;-73
2021/06/19 01:36:31;;;;;;;7.55;6.85;;;27.10;87.80;;;;;;5131438;27;20229;-73
2021/06/19 01:38:58;;;;;;;8.10;7.45;;;27.10;86.90;;;;;;5131123;27;20651;-73
2021/06/19 01:41:27;;;;;;;7.75;7.15;;;27.10;86.90;;;;;;5131631;27;20205;-74
2021/06/19 01:44:00;;;;;;;8.23;7.38;;;27.10;87.20;;;;;;5131247;27;20209;-74
2021/06/19 01:46:28;;;;;;;8.77;7.88;;;27.10;87.00;;;;;;5130919;27;20636;-73
2021/06/19 01:48:54;;;;;;;8.38;7.78;;;27.10;87.00;;;;;;5131277;27;20205;-74
2021/06/19 01:51:21;;;;;;;8.02;7.43;;;27.10;87.00;;;;;;5131224;27;20302;-74
2021/06/19 01:53:48;;;;;;;8.65;7.28;;;27.00;87.50;;;;;;5130769;27;20679;-73
2021/06/19 01:56:15;;;;;;;8.63;7.80;;;27.00;87.80;;;;;;5131338;27;20250;-73
2021/06/19 01:58:42;;;;;;;8.15;7.55;;;27.00;87.80;;;;;;5131163;27;20658;-73
2021/06/19 02:01:12;;;;;;;8.93;8.10;;;26.90;87.80;;;;;;5130922;27;20728;-74
2021/06/19 02:03:39;;;;;;;8.30;7.68;;;26.90;87.50;;;;;;5130969;27;20232;-74
2021/06/19 02:06:06;;;;;;;8.45;7.60;;;26.90;87.70;;;;;;5130567;27;20237;-74
2021/06/19 02:08:33;;;;;;;8.68;7.82;;;26.90;87.60;;;;;;5131005;27;20210;-73
2021/06/19 02:11:01;;;;;;;8.07;7.38;;;26.80;87.60;;;;;;5126407;27;20289;-73
2021/06/19 02:13:28;;;;;;;8.02;7.38;;;26.80;87.90;;;;;;5118513;27;20705;-73
2021/06/19 02:15:55;;;;;;;10.70;7.65;;;26.80;88.00;;;;;;5110728;27;20202;-74
2021/06/19 02:18:23;;;;;;;7.90;7.38;;;26.70;88.10;;;;;;5118645;27;20213;-73
2021/06/19 02:20:53;;;;;;;7.53;7.03;;;26.70;88.30;;;;;;5130470;27;20599;-74
2021/06/19 02:23:20;;;;;;;8.88;8.10;;;26.70;88.40;;;;;;5130729;27;20266;-74
2021/06/19 02:25:51;;;;;;;8.65;7.90;;;26.70;88.50;;;;;;5130598;27;20209;-75
2021/06/19 02:28:19;;;;;;;10.82;7.20;;;26.60;88.20;;;;;;5130448;27;20231;-74
2021/06/19 02:30:48;;;;;;;8.90;8.10;;;26.60;88.20;;;;;;5130291;27;20320;-76
2021/06/19 02:33:15;;;;;;;8.20;7.53;;;26.60;88.50;;;;;;5130576;27;20251;-76
2021/06/19 02:35:44;;;;;;;7.82;7.25;;;26.60;88.60;;;;;;5130541;27;20205;-75
2021/06/19 02:38:12;;;;;;;12.50;7.57;;;26.60;89.00;;;;;;5130441;27;20201;-75
2021/06/19 02:40:39;;;;;;;8.32;7.63;;;26.50;88.90;;;;;;5129970;27;20608;-75
2021/06/19 02:43:06;;;;;;;8.18;7.47;;;26.60;88.90;;;;;;5129659;27;20751;-74
2021/06/19 02:45:33;;;;;;;7.85;7.25;;;26.50;88.30;;;;;;5129835;27;20206;-74
2021/06/19 02:48:01;;;;;;;7.53;7.03;;;26.40;88.90;;;;;;5129861;27;20223;-74
2021/06/19 02:50:29;;;;;;;8.50;7.50;;;26.40;89.50;;;;;;5129940;27;20613;-74
2021/06/19 02:52:59;;;;;;;8.32;7.63;;;26.30;89.80;;;;;;5130209;27;20202;-75
2021/06/19 02:55:27;;;;;;;8.85;8.00;;;26.30;90.00;;;;;;5130128;27;20201;-74
2021/06/19 02:57:54;;;;;;;8.25;7.55;;;26.30;90.00;;;;;;5129800;27;20205;-74
2021/06/19 03:00:22;;;;;;;8.50;7.68;;;26.30;90.20;;;;;;5129914;27;20206;-74
2021/06/19 03:02:49;;;;;;;8.65;7.78;;;26.30;89.90;;;;;;5129490;27;20205;-75
2021/06/19 03:05:18;;;;;;;10.40;7.43;;;26.30;89.90;;;;;;5129678;27;20278;-75
2021/06/19 03:07:45;;;;;;;7.75;7.05;;;26.20;89.80;;;;;;5129881;27;20245;-75
2021/06/19 03:10:16;;;;;;;9.27;8.23;;;26.30;89.20;;;;;;5130047;27;20201;-75
2021/06/19 03:12:42;;;;;;;8.40;7.80;;;26.30;89.20;;;;;;5129601;27;20617;-75
2021/06/19 03:15:10;;;;;;;8.50;7.85;;;26.20;89.70;;;;;;5129926;27;20201;-76
2021/06/19 03:17:37;;;;;;;9.40;8.35;;;26.20;90.00;;;;;;5129530;27;20600;-76
2021/06/19 03:20:05;;;;;;;9.40;8.18;;;26.20;90.20;;;;;;5129887;27;20254;-76
2021/06/19 03:22:41;;;;;;;9.00;8.18;;;26.20;90.10;;;;;;5129615;27;20201;-76
2021/06/19 03:25:08;;;;;;;8.95;7.40;;;26.20;90.10;;;;;;5130047;27;20242;-76
2021/06/19 03:27:36;;;;;;;9.75;7.75;;;26.20;89.90;;;;;;5129293;27;20579;-76
2021/06/19 03:30:04;;;;;;;8.65;7.93;;;26.20;89.90;;;;;;5129715;27;20209;-76
2021/06/19 03:32:30;;;;;;;8.02;7.45;;;26.10;89.80;;;;;;5129176;27;20273;-74
2021/06/19 03:34:57;;;;;;;7.70;7.00;;;26.10;90.00;;;;;;5129613;27;20206;-74
2021/06/19 03:37:24;;;;;;;8.10;7.50;;;26.10;90.20;;;;;;5129405;27;20285;-74
2021/06/19 03:39:50;;;;;;;8.68;8.07;;;26.10;90.10;;;;;;5129351;27;20205;-74
2021/06/19 03:42:17;;;;;;;8.73;8.02;;;26.00;90.60;;;;;;5129591;27;20245;-74
2021/06/19 03:44:45;;;;;;;7.82;7.30;;;26.00;90.60;;;;;;5129211;27;20209;-74
2021/06/19 03:47:11;;;;;;;8.10;7.57;;;26.10;90.60;;;;;;5129397;27;20205;-74
2021/06/19 03:49:38;;;;;;;8.32;7.63;;;26.10;90.50;;;;;;5128987;28;20206;-74
2021/06/19 03:52:05;;;;;;;9.20;8.00;;;26.10;90.50;;;;;;5129179;27;20633;-74
2021/06/19 03:54:37;;;;;;;8.20;7.50;;;26.10;90.60;;;;;;5129375;27;20201;-74
2021/06/19 03:57:04;;;;;;;8.40;7.50;;;26.10;90.60;;;;;;5133749;27;20189;-74
2021/06/19 03:59:31;;;;;;;7.85;7.30;;;26.10;90.30;;;;;;5133201;27;20238;-74
2021/06/19 04:01:59;;;;;;;8.70;7.90;;;26.10;90.20;;;;;;5133107;27;20201;-75
2021/06/19 04:04:25;;;;;;;8.52;7.80;;;26.10;90.20;;;;;;5133080;27;20304;-75
2021/06/19 04:06:52;;;;;;;8.50;7.90;;;26.10;90.20;;;;;;5133189;27;20202;-76
2021/06/19 04:09:19;;;;;;;9.27;8.32;;;26.10;90.20;;;;;;5132891;27;20671;-73
2021/06/19 04:11:45;;;;;;;8.93;8.15;;;26.00;90.30;;;;;;5133128;27;20400;-73
2021/06/19 04:14:12;;;;;;;8.77;7.80;;;26.00;90.30;;;;;;5133227;27;20253;-72
2021/06/19 04:16:38;;;;;;;8.68;7.93;;;26.00;90.40;;;;;;5133045;27;20201;-72
2021/06/19 04:19:06;;;;;;;8.77;7.70;;;26.00;90.50;;;;;;5133103;27;20206;-73
2021/06/19 04:21:33;;;;;;;9.63;8.68;;;26.00;90.60;;;;;;5133024;27;20197;-73
2021/06/19 04:23:59;;;;;;;9.20;8.25;;;26.00;90.80;;;;;;5133005;27;20202;-73
2021/06/19 04:26:26;;;;;;;7.80;7.30;;;26.00;90.80;;;;;;5133042;27;20244;-73
2021/06/19 04:28:53;;;;;;;8.52;7.85;;;26.00;91.00;;;;;;5132804;27;20233;-73
2021/06/19 04:31:19;;;;;;;10.80;8.63;;;26.00;90.80;;;;;;5132789;27;20229;-73
2021/06/19 04:33:46;;;;;;;8.85;8.02;;;26.10;90.70;;;;;;5132481;27;20659;-73
2021/06/19 04:36:14;;;;;;;8.55;7.80;;;26.00;90.70;;;;;;5133001;27;20202;-74
2021/06/19 04:38:40;;;;;;;9.15;8.45;;;26.00;90.90;;;;;;5132406;27;20655;-74
2021/06/19 04:41:10;;;;;;;9.93;8.70;;;26.00;91.00;;;;;;5132933;27;20282;-76
2021/06/19 04:43:52;;;;;;;9.35;8.52;;;26.00;91.10;;;;;;5132608;27;20229;-75
2021/06/19 04:46:18;;;;;;;9.30;8.70;;;26.00;91.30;;;;;;5132918;27;20190;-75
2021/06/19 04:48:45;;;;;;;8.75;7.95;;;26.00;91.30;;;;;;5132586;27;20206;-74
2021/06/19 04:51:15;;;;;;;9.63;8.15;;;26.00;91.40;;;;;;5132683;27;20278;-75
2021/06/19 04:53:41;;;;;;;9.10;8.30;;;26.00;91.50;;;;;;5132590;27;20206;-75
2021/06/19 04:56:08;;;;;;;9.43;8.63;;;25.90;91.50;;;;;;5132431;27;20201;-73
2021/06/19 04:58:35;;;;;;;8.23;7.53;;;25.90;91.70;;;;;;5132295;27;20266;-73
2021/06/19 05:01:02;;;;;;;8.90;8.07;;;25.90;91.70;;;;;;5132222;27;20262;-73
2021/06/19 05:03:29;;;;;;;8.75;7.85;;;25.90;91.80;;;;;;5132067;27;20225;-74
2021/06/19 05:05:55;;;;;;;9.45;8.60;;;26.00;91.70;;;;;;5131653;27;20302;-74
2021/06/19 05:08:23;;;;;;;9.00;8.15;;;26.00;91.60;;;;;;5132061;27;20210;-74
2021/06/19 05:10:50;;;;;;;8.80;8.02;;;26.10;91.70;;;;;;5131927;27;20281;-74
2021/06/19 05:13:17;;;;;;;8.52;7.72;;;26.10;91.80;;;;;;5132049;27;20229;-73
2021/06/19 05:15:43;;;;;;;8.45;7.75;;;26.20;91.70;;;;;;5131810;27;20201;-74
2021/06/19 05:18:10;;;;;;;8.85;8.23;;;26.10;91.70;;;;;;5132007;27;20205;-74
2021/06/19 05:20:37;;;;;;;8.13;7.60;;;26.20;91.70;;;;;;5131939;27;20258;-73
2021/06/19 05:23:09;;;;;;;8.75;8.05;;;26.20;91.50;;;;;;5131852;27;20209;-73
2021/06/19 05:25:38;;;;;;;8.40;7.60;;;26.20;91.50;;;;;;5131888;27;20185;-73
2021/06/19 05:28:04;;;;;;;8.82;8.10;;;26.30;91.60;;;;;;5131768;27;20285;-73
2021/06/19 05:30:31;;;;;;;9.60;8.57;;;26.30;91.70;;;;;;5131326;27;20618;-73
2021/06/19 05:32:58;;;;;;;9.80;8.90;;;26.30;91.70;;;;;;5131435;27;20293;-74
2021/06/19 05:35:25;;;;;;;12.68;9.55;;;26.30;91.90;;;;;;5131535;27;20251;-74
2021/06/19 05:37:52;;;;;;;8.85;8.02;;;26.30;91.90;;;;;;5131355;27;20201;-74
2021/06/19 05:40:18;;;;;;;9.18;7.78;;;26.30;92.00;;;;;;5131809;27;20236;-74
2021/06/19 05:42:46;;;;;;;9.15;8.35;;;26.40;91.80;;;;;;5131218;27;20213;-74
2021/06/19 05:45:13;;;;;;;8.30;7.70;;;26.40;91.90;;;;;;5131640;27;20213;-75
2021/06/19 05:47:40;;;;;;;8.45;7.78;;;26.50;92.10;;;;;;5131280;27;20579;-76
2021/06/19 05:50:09;;;;;;;8.38;7.68;;;26.50;92.20;;;;;;5131468;27;20201;-76
2021/06/19 05:52:35;;;;;;;8.30;7.43;;;26.50;91.90;;;;;;5131445;27;20716;-76
2021/06/19 05:55:02;;;;;;;8.38;7.68;;;26.50;91.70;;;;;;5131200;27;20227;-76
2021/06/19 05:57:29;;;;;;;8.27;7.55;;;26.60;92.10;;;;;;5131097;27;20209;-75
2021/06/19 05:59:57;;;;;;;8.93;8.23;;;26.60;92.50;;;;;;5131039;27;20258;-75
2021/06/19 06:02:23;;;;;;;8.80;8.10;;;26.60;92.90;;;;;;5111523;27;20232;-75
2021/06/19 06:04:50;;;;;;;8.57;7.97;;;26.60;92.90;;;;;;5109900;28;21083;-73
2021/06/19 06:07:17;;;;;;;8.77;7.97;;;26.60;92.90;;;;;;5122283;27;20656;-73
2021/06/19 06:09:43;;;;;;;8.98;7.47;;;26.60;92.80;;;;;;5119387;27;20205;-71
2021/06/19 06:12:11;;;;;;;7.97;7.28;;;26.70;92.90;;;;;;5121780;27;20240;-74
2021/06/19 06:14:38;;;;;;;8.93;8.23;;;26.70;92.80;;;;;;5119142;27;20263;-74
2021/06/19 06:17:06;;;;;;;8.35;7.68;;;26.70;93.00;;;;;;5119138;27;20234;-75
2021/06/19 06:19:32;;;;;;;8.82;7.40;;;26.70;92.90;;;;;;5120596;27;20553;-75
2021/06/19 06:21:59;;;;;;;8.15;7.45;;;26.70;92.90;;;;;;5121007;27;20206;-75
2021/06/19 06:24:26;;;;;;;8.68;7.97;;;26.80;92.60;;;;;;5120674;27;20205;-74
2021/06/19 06:26:53;;;;;;;8.55;7.65;;;26.80;92.70;;;;;;5119301;27;21914;-74
2021/06/19 06:29:20;;;;;;;7.70;7.20;;;26.90;92.70;;;;;;5126880;27;20279;-74
2021/06/19 06:31:46;;;;;;;9.00;8.20;;;26.90;92.60;;;;;;5120810;27;20224;-74
2021/06/19 06:34:15;;;;;;;9.43;8.57;;;26.90;92.60;;;;;;5108125;28;20618;-73
2021/06/19 06:36:41;;;;;;;9.25;8.40;;;26.90;92.70;;;;;;5107379;28;20580;-74
2021/06/19 06:39:08;;;;;;;10.38;9.43;;;27.00;92.50;;;;;;5107603;27;20210;-73
2021/06/19 06:41:35;;;;;;;9.38;8.43;;;26.90;92.60;;;;;;5118072;27;20206;-73
2021/06/19 06:44:02;;;;;;;12.70;9.02;;;26.90;92.50;;;;;;5117042;27;20718;-73
2021/06/19 06:46:29;;;;;;;9.55;8.73;;;27.00;92.80;;;;;;5119220;27;20282;-73
2021/06/19 06:48:56;;;;;;;8.70;8.10;;;27.00;93.00;;;;;;5115592;27;20199;-73
2021/06/19 06:51:24;;;;;;;9.18;8.25;;;26.90;93.00;;;;;;5118625;27;20190;-73
2021/06/19 06:53:50;;;;;;;9.27;8.43;;;27.00;93.00;;;;;;5115655;27;20654;-73
2021/06/19 06:56:17;;;;;;;10.30;8.63;;;27.00;92.90;;;;;;5114498;27;20194;-73
2021/06/19 06:58:43;;;;;;;8.88;8.20;;;27.00;93.00;;;;;;5107050;28;20271;-73
2021/06/19 07:01:10;;;;;;;10.18;9.07;;;27.00;93.00;;;;;;5107170;27;20245;-73
2021/06/19 07:03:37;;;;;;;9.95;8.93;;;27.10;93.00;;;;;;5111942;27;20225;-73
2021/06/19 07:06:04;;;;;;;9.10;8.35;;;27.10;93.00;;;;;;5118108;27;20232;-73
2021/06/19 07:08:32;;;;;;;8.88;8.27;;;27.10;92.90;;;;;;5106928;28;20729;-72
2021/06/19 07:10:58;;;;;;;8.25;7.45;;;27.10;92.80;;;;;;5107361;28;20251;-72
2021/06/19 07:13:25;;;;;;;9.50;8.70;;;27.20;92.70;;;;;;5107701;28;20241;-72
2021/06/19 07:15:52;;;;;;;8.88;8.20;;;27.20;92.80;;;;;;5106677;28;20214;-72
2021/06/19 07:18:19;;;;;;;9.45;8.63;;;27.30;92.70;;;;;;5106311;28;20757;-72
2021/06/19 07:20:45;;;;;;;9.13;8.23;;;27.30;92.80;;;;;;5106673;28;20289;-73
2021/06/19 07:23:12;;;;;;;9.02;8.27;;;27.30;92.80;;;;;;5114739;27;20608;-72
2021/06/19 07:25:40;;;;;;;9.50;8.23;;;27.40;92.70;;;;;;5106763;28;20222;-72
2021/06/19 07:28:06;;;;;;;8.88;8.10;;;27.40;92.60;;;;;;5106682;28;20229;-72
2021/06/19 07:30:33;;;;;;;10.32;8.57;;;27.50;92.90;;;;;;5106907;28;20206;-72
2021/06/19 07:33:00;;;;;;;8.88;8.27;;;27.50;92.50;;;;;;5106977;28;20230;-72
2021/06/19 07:35:27;;;;;;;7.57;7.10;;;27.50;92.30;;;;;;5107936;27;20238;-72
2021/06/19 07:37:53;;;;;;;8.27;7.57;;;27.60;92.20;;;;;;5124249;27;20206;-73
2021/06/19 07:40:20;;;;;;;9.48;7.90;;;27.60;92.30;;;;;;5117606;27;20189;-73
2021/06/19 07:42:48;;;;;;;8.55;7.85;;;27.70;92.50;;;;;;5114812;27;20209;-74
2021/06/19 07:45:16;;;;;;;8.30;7.50;;;27.70;92.70;;;;;;5115684;27;20209;-73
2021/06/19 07:47:42;;;;;;;8.38;7.57;;;27.80;92.80;;;;;;5113852;27;21036;-73
2021/06/19 07:50:10;;;;;;;8.82;8.07;;;27.80;92.50;;;;;;5116866;28;20234;-75
2021/06/19 07:52:36;;;;;;;8.55;7.70;;;27.90;92.80;;;;;;5128508;27;20261;-73
2021/06/19 07:55:03;;;;;;;8.02;7.43;;;28.00;92.50;;;;;;5126968;28;20313;-73
2021/06/19 07:57:31;;;;;;;8.90;7.25;;;28.00;92.70;;;;;;5127675;27;20237;-73
2021/06/19 07:59:59;;;;;;;8.68;8.00;;;28.10;92.80;;;;;;5128682;28;20209;-73
2021/06/19 08:02:25;;;;;;;7.90;7.13;;;28.20;92.70;;;;;;5128786;28;20229;-73
2021/06/19 08:04:52;;;;;;;8.02;7.28;;;28.20;92.50;;;;;;5128135;28;20251;-73
2021/06/19 08:07:19;;;;;;;7.38;6.80;;;28.30;92.90;;;;;;5128617;27;20235;-73
2021/06/19 08:09:46;;;;;;;8.02;7.22;;;28.40;92.30;;;;;;5128904;28;20215;-73
2021/06/19 08:12:12;;;;;;;7.90;7.30;;;28.40;92.20;;;;;;5128513;28;20274;-73
2021/06/19 08:14:39;;;;;;;8.27;7.25;;;28.40;92.10;;;;;;5128740;28;20212;-73
2021/06/19 08:17:15;;;;;;;9.15;8.20;;;28.50;91.90;;;;;;5128681;28;20297;-73
2021/06/19 08:19:45;;;;;;;9.50;8.60;;;28.50;91.90;;;;;;5128658;28;20250;-73
2021/06/19 08:22:12;;;;;;;8.43;7.75;;;28.50;91.90;;;;;;5128675;28;20212;-73
2021/06/19 08:24:39;;;;;;;8.07;7.47;;;28.60;92.00;;;;;;5127395;28;20201;-74
2021/06/19 08:27:07;;;;;;;7.70;7.15;;;28.60;92.00;;;;;;5128052;28;20590;-73
2021/06/19 08:29:34;;;;;;;8.48;7.75;;;28.60;91.90;;;;;;5128627;27;20201;-73
2021/06/19 08:32:01;;;;;;;7.40;6.85;;;28.70;92.00;;;;;;5128037;28;20206;-73
2021/06/19 08:34:29;;;;;;;7.63;7.00;;;28.70;91.90;;;;;;5128485;28;20202;-74
2021/06/19 08:36:56;;;;;;;7.22;6.72;;;28.70;91.80;;;;;;5128108;28;20631;-73
2021/06/19 08:39:23;;;;;;;8.15;7.38;;;28.80;91.90;;;;;;5128159;27;20205;-73
2021/06/19 08:41:50;;;;;;;7.93;6.18;;;28.90;91.30;;;;;;5130149;27;20737;-73
2021/06/19 08:44:21;;;;;;;10.70;7.38;;;28.90;91.30;;;;;;5132505;27;20628;-73
2021/06/19 08:46:50;;;;;;;7.55;6.50;;;29.00;91.30;;;;;;5111905;28;20198;-74
2021/06/19 08:49:17;;;;;;;22.80;8.18;;;29.00;91.40;;;;;;5111485;28;20210;-73
2021/06/19 08:51:46;;;;;;;7.82;6.97;;;29.00;91.30;;;;;;5111431;27;20206;-73
2021/06/19 08:54:12;;;;;;;7.43;6.80;;;29.10;91.10;;;;;;5111466;28;20226;-74
2021/06/19 08:56:40;;;;;;;8.52;6.60;;;29.10;90.60;;;;;;5110846;28;20592;-73
2021/06/19 08:59:06;;;;;;;8.02;7.18;;;29.20;90.70;;;;;;5111166;28;20224;-73
2021/06/19 09:01:33;;;;;;;7.15;6.63;;;29.20;90.80;;;;;;5111476;28;20270;-73
2021/06/19 09:04:03;;;;;;;6.78;6.22;;;29.30;90.60;;;;;;5110863;28;20226;-73
2021/06/19 09:06:30;;;;;;;6.85;6.32;;;29.30;90.40;;;;;;5111175;28;20217;-73
2021/06/19 09:09:04;;;;;;;6.65;6.15;;;29.30;89.80;;;;;;5110916;28;20217;-73
2021/06/19 09:11:32;;;;;;;8.15;7.45;;;29.40;89.70;;;;;;5111068;28;20202;-73
2021/06/19 09:14:00;;;;;;;7.45;6.93;;;29.50;89.50;;;;;;5110910;28;20230;-73
2021/06/19 09:16:26;;;;;;;8.13;7.53;;;29.50;89.40;;;;;;5111340;28;20206;-73
2021/06/19 09:18:53;;;;;;;6.28;5.90;;;29.60;89.40;;;;;;5117659;27;20201;-74
2021/06/19 09:21:28;;;;;;;7.00;6.30;;;29.70;87.90;;;;;;5121162;27;20462;-74
2021/06/19 09:23:54;;;;;;;7.00;6.30;;;29.70;87.60;;;;;;5117823;27;20197;-72
2021/06/19 09:26:23;;;;;;;6.18;5.50;;;29.70;87.30;;;;;;5118110;27;20202;-72
2021/06/19 09:29:06;;;;;;;5.47;5.05;;;29.80;86.90;;;;;;5111071;28;20583;-72
2021/06/19 09:31:35;;;;;;;6.18;5.68;;;29.80;86.80;;;;;;5110952;28;20277;-72
2021/06/19 09:34:03;;;;;;;6.32;5.72;;;29.90;85.70;;;;;;5122665;27;20851;-72
2021/06/19 09:36:38;;;;;;;6.97;5.82;;;30.10;85.80;;;;;;5131206;27;20610;-73
2021/06/19 09:39:06;;;;;;;6.15;5.05;;;30.20;84.90;;;;;;5131258;27;20205;-73
2021/06/19 09:41:38;;;;;;;5.80;5.20;;;30.20;84.60;;;;;;5131351;27;20411;-73
2021/06/19 09:44:06;;;;;;;6.00;5.50;;;30.30;84.30;;;;;;5131287;27;20623;-73
2021/06/19 09:46:33;;;;;;;5.88;5.30;;;30.30;83.90;;;;;;5129914;27;20554;-73
2021/06/19 09:49:11;;;;;;;6.70;5.22;;;30.40;83.40;;;;;;5130983;27;20254;-73
2021/06/19 09:51:44;;;;;;;6.32;5.70;;;30.40;84.20;;;;;;5131015;27;20197;-73
2021/06/19 09:54:11;;;;;;;6.15;5.20;;;30.40;83.10;;;;;;5130084;27;20221;-73
2021/06/19 09:56:47;;;;;;;6.20;5.80;;;30.50;82.80;;;;;;5131134;27;20201;-73
2021/06/19 09:59:24;;;;;;;7.60;6.10;;;30.50;81.60;;;;;;5130732;27;20208;-73
2021/06/19 10:01:50;;;;;;;7.65;6.60;;;30.60;82.00;;;;;;5130841;27;20240;-73
2021/06/19 10:04:20;;;;;;;7.95;6.57;;;30.70;82.00;;;;;;5130788;27;20663;-73
2021/06/19 10:06:47;;;;;;;7.18;6.35;;;30.70;81.90;;;;;;5130675;27;20208;-73
2021/06/19 10:09:15;;;;;;;7.68;7.18;;;30.80;82.00;;;;;;5131029;27;20320;-73
2021/06/19 10:11:43;;;;;;;6.03;5.63;;;30.80;81.50;;;;;;5130852;27;20624;-73
2021/06/19 10:14:16;;;;;;;6.03;5.53;;;30.90;79.20;;;;;;5130631;27;20233;-73
2021/06/19 10:16:44;;;;;;;6.20;5.60;;;31.00;79.30;;;;;;5130702;27;20234;-73
2021/06/19 10:19:18;;;;;;;5.03;4.65;;;31.00;79.70;;;;;;5128962;27;20233;-73
2021/06/19 10:21:45;;;;;;;4.95;4.55;;;31.10;76.20;;;;;;5130999;27;20201;-73
2021/06/19 10:24:13;;;;;;;6.65;4.30;;;31.10;76.20;;;;;;5130665;27;20230;-73
2021/06/19 10:26:41;;;;;;;4.70;4.18;;;31.10;74.10;;;;;;5130492;27;20212;-73
2021/06/19 10:29:08;;;;;;;4.95;4.72;;;31.30;73.90;;;;;;5130319;27;20216;-73
2021/06/19 10:31:41;;;;;;;4.90;4.53;;;31.30;73.50;;;;;;5130459;27;20206;-73
2021/06/19 10:34:27;;;;;;;4.80;4.40;;;31.50;74.60;;;;;;5130081;27;20236;-73
2021/06/19 10:36:55;;;;;;;6.03;4.93;;;31.50;74.60;;;;;;5130189;27;20194;-73
2021/06/19 10:39:41;;;;;;;7.38;5.72;;;31.60;75.60;;;;;;5127068;27;20202;-73
2021/06/19 10:42:27;;;;;;;5.20;4.72;;;31.60;75.30;;;;;;5130222;27;20284;-73
2021/06/19 10:44:59;;;;;;;10.13;5.10;;;31.50;75.70;;;;;;5129358;27;20213;-73
2021/06/19 10:47:29;;;;;;;5.95;5.13;;;31.70;74.40;;;;;;5129962;27;20198;-73
2021/06/19 10:49:57;;;;;;;5.38;4.88;;;31.90;75.30;;;;;;5126951;27;20193;-73
2021/06/19 10:52:34;;;;;;;5.72;5.07;;;32.10;74.60;;;;;;5130088;27;20237;-73
2021/06/19 10:55:26;;;;;;;5.45;4.75;;;32.00;73.60;;;;;;5129214;27;20666;-73
2021/06/19 10:57:55;;;;;;;4.75;4.35;;;32.10;74.10;;;;;;5114096;27;20201;-73
2021/06/19 11:00:28;;;;;;;4.75;4.38;;;32.10;72.20;;;;;;5129709;27;20292;-73
2021/06/19 11:02:57;;;;;;;4.90;4.32;;;32.30;71.80;;;;;;5129462;27;20850;-73
2021/06/19 11:05:58;;;;;;;4.80;4.50;;;32.50;72.10;;;;;;5129337;27;20268;-73
2021/06/19 11:08:25;;;;;;;5.47;4.97;;;32.70;72.30;;;;;;5129929;27;20249;-73
2021/06/19 11:10:55;;;;;;;5.40;4.93;;;32.90;71.50;;;;;;5129594;27;20209;-72
2021/06/19 11:13:49;;;;;;;5.55;5.13;;;33.10;71.80;;;;;;5129696;27;20229;-73
2021/06/19 11:16:47;;;;;;;5.82;5.43;;;33.40;71.50;;;;;;5125807;27;20544;-73
2021/06/19 11:19:42;;;;;;;5.43;5.13;;;33.40;71.20;;;;;;5102604;28;20210;-73
2021/06/19 11:22:33;;;;;;;5.50;5.13;;;33.40;71.30;;;;;;5117934;27;20578;-73
2021/06/19 11:25:22;;;;;;;7.03;5.78;;;33.40;71.30;;;;;;5120689;27;20197;-73
2021/06/19 11:27:57;;;;;;;5.68;5.18;;;33.30;71.10;;;;;;5106934;28;20332;-73
2021/06/19 11:30:48;;;;;;;5.90;5.22;;;33.00;71.70;;;;;;5115453;27;20221;-73
2021/06/19 11:33:45;;;;;;;6.07;5.22;;;33.00;72.00;;;;;;5126622;27;20761;-73
2021/06/19 11:36:33;;;;;;;5.30;5.00;;;32.70;72.00;;;;;;5126760;27;20190;-73
2021/06/19 11:39:08;;;;;;;5.95;5.38;;;32.60;73.20;;;;;;5121499;27;20189;-73
2021/06/19 11:41:38;;;;;;;5.63;5.22;;;32.50;73.60;;;;;;5115710;27;20208;-73
2021/06/19 11:44:11;;;;;;;5.90;5.38;;;32.30;73.50;;;;;;5121125;27;20655;-72
2021/06/19 11:46:38;;;;;;;5.57;5.07;;;32.30;74.30;;;;;;5123589;27;20616;-72
2021/06/19 11:49:09;;;;;;;7.22;5.78;;;32.20;74.90;;;;;;5128936;27;20604;-72
2021/06/19 11:51:37;;;;;;;6.10;5.68;;;32.20;75.20;;;;;;5129205;27;20254;-72
2021/06/19 11:54:05;;;;;;;5.68;5.18;;;32.20;75.70;;;;;;5128846;28;20233;-72
2021/06/19 11:56:33;;;;;;;6.22;5.25;;;32.20;75.90;;;;;;5129169;28;20208;-72
2021/06/19 11:59:01;;;;;;;5.40;5.00;;;32.30;76.30;;;;;;5128974;28;20286;-72
2021/06/19 12:01:31;;;;;;;5.90;5.55;;;32.30;75.50;;;;;;5128549;28;20675;-73
2021/06/19 12:04:00;;;;;;;5.63;5.30;;;32.40;76.10;;;;;;5128544;28;20212;-72
2021/06/19 12:06:32;;;;;;;6.15;5.40;;;32.40;76.60;;;;;;5129203;28;20193;-74
2021/06/19 12:09:00;;;;;;;6.65;5.55;;;32.40;76.10;;;;;;5128815;28;20209;-73
2021/06/19 12:11:28;;;;;;;6.15;5.63;;;32.40;75.90;;;;;;5128692;28;20675;-73
2021/06/19 12:13:55;;;;;;;6.45;5.28;;;32.50;76.10;;;;;;5128930;27;20233;-73
2021/06/19 12:16:30;;;;;;;6.00;5.60;;;32.50;76.50;;;;;;5130336;27;20266;-73
2021/06/19 12:19:01;;;;;;;6.03;5.63;;;32.50;76.90;;;;;;5132763;27;20193;-74
2021/06/19 12:21:33;;;;;;;5.97;5.57;;;32.60;76.40;;;;;;5132922;27;20205;-73
2021/06/19 12:24:02;;;;;;;6.40;5.80;;;32.70;76.00;;;;;;5132721;27;20208;-73
2021/06/19 12:26:29;;;;;;;6.03;5.53;;;32.70;76.10;;;;;;5132892;27;20274;-73
2021/06/19 12:28:56;;;;;;;5.95;5.53;;;32.70;76.00;;;;;;5132722;27;20233;-73
2021/06/19 12:31:26;;;;;;;6.25;5.85;;;32.80;75.90;;;;;;5132917;27;20206;-73
2021/06/19 12:34:02;;;;;;;7.43;6.22;;;32.90;77.00;;;;;;5132666;27;20312;-73
2021/06/19 12:36:29;;;;;;;5.90;5.50;;;32.90;75.90;;;;;;5132698;27;20189;-73
2021/06/19 12:38:57;;;;;;;6.38;5.82;;;33.00;75.90;;;;;;5132556;27;20258;-73
2021/06/19 12:41:25;;;;;;;6.80;6.20;;;33.00;76.20;;;;;;5132753;27;20611;-74
2021/06/19 12:43:54;;;;;;;6.85;6.35;;;33.10;75.70;;;;;;5132600;27;20557;-73
2021/06/19 12:46:22;;;;;;;7.20;6.25;;;33.20;76.40;;;;;;5132544;27;20205;-73
2021/06/19 12:48:50;;;;;;;7.22;6.65;;;33.30;76.70;;;;;;5132368;27;20250;-74
2021/06/19 12:51:26;;;;;;;7.38;6.63;;;33.30;76.90;;;;;;5132539;27;20208;-73
2021/06/19 12:53:53;;;;;;;7.60;6.90;;;33.40;76.30;;;;;;5131877;27;20220;-74